Time;durP1;ratioP1;P1;durP2;ratioP2;P2;SDS_P1;SDS_P2;PMS_P1;PMS_P2;Temp;Humidity;BMP_temperature;BMP_pressure;BME280_temperature;BME280_humidity;BME280_pressure;Samples;Min_cycle;Max_cycle;Signal;HPM_P1;HPM_P2
2020/12/27 00:00:29;;;;;;;0.80;0.73;;;20.00;48.40;;;;;;5060584;28;20492;-68
2020/12/27 00:02:55;;;;;;;4.73;0.97;;;20.00;48.60;;;;;;5069247;28;20872;-67
2020/12/27 00:05:21;;;;;;;1.27;1.27;;;19.90;48.70;;;;;;5068164;28;20489;-68
2020/12/27 00:07:48;;;;;;;0.70;0.70;;;19.90;48.90;;;;;;5067987;28;20476;-68
2020/12/27 00:10:14;;;;;;;1.07;0.97;;;19.90;48.60;;;;;;5068435;28;20485;-67
2020/12/27 00:12:41;;;;;;;1.03;0.87;;;20.00;48.70;;;;;;5066175;28;20998;-68
2020/12/27 00:15:07;;;;;;;0.60;0.60;;;20.00;48.50;;;;;;5044126;28;20461;-68
2020/12/27 00:17:33;;;;;;;0.40;0.40;;;20.00;48.50;;;;;;5048661;28;20496;-67
2020/12/27 00:19:59;;;;;;;0.73;0.73;;;20.00;48.70;;;;;;5048110;28;20483;-67
2020/12/27 00:22:25;;;;;;;0.90;0.90;;;20.00;48.50;;;;;;5051266;28;20478;-68
2020/12/27 00:24:51;;;;;;;0.50;0.50;;;20.00;48.60;;;;;;5052447;28;20500;-68
2020/12/27 00:27:18;;;;;;;0.87;0.87;;;20.00;48.70;;;;;;5054742;28;20552;-68
2020/12/27 00:29:45;;;;;;;0.67;0.67;;;20.00;48.60;;;;;;5051559;28;20894;-68
2020/12/27 00:32:11;;;;;;;0.87;0.87;;;20.00;48.60;;;;;;5047081;28;20554;-67
2020/12/27 00:34:38;;;;;;;0.63;0.63;;;20.00;48.80;;;;;;5053071;28;20473;-67
2020/12/27 00:37:04;;;;;;;0.63;0.63;;;19.90;48.80;;;;;;5049592;28;20508;-67
2020/12/27 00:39:30;;;;;;;0.70;0.70;;;19.90;49.00;;;;;;5008679;28;20572;-68
2020/12/27 00:41:58;;;;;;;0.73;0.73;;;19.90;48.80;;;;;;5006295;28;20502;-68
2020/12/27 00:44:24;;;;;;;0.70;0.70;;;19.80;48.90;;;;;;5044689;28;20497;-67
2020/12/27 00:46:51;;;;;;;0.90;0.90;;;19.90;48.90;;;;;;5034771;28;21275;-68
2020/12/27 00:49:17;;;;;;;0.80;0.80;;;19.90;48.90;;;;;;5052620;28;20477;-67
2020/12/27 00:51:43;;;;;;;0.63;0.63;;;19.90;49.00;;;;;;5042648;28;21045;-67
2020/12/27 00:54:10;;;;;;;1.17;1.17;;;19.90;49.10;;;;;;5042587;28;20525;-67
2020/12/27 00:56:36;;;;;;;0.67;0.67;;;20.00;48.90;;;;;;5042864;28;20875;-67
2020/12/27 00:59:02;;;;;;;0.60;0.60;;;20.00;48.80;;;;;;5030578;28;20903;-67
2020/12/27 01:01:28;;;;;;;0.60;0.60;;;20.10;49.10;;;;;;5050348;28;20478;-67
2020/12/27 01:03:55;;;;;;;1.77;0.60;;;20.10;49.00;;;;;;5039485;28;20491;-67
2020/12/27 01:06:24;;;;;;;0.80;0.80;;;20.10;49.20;;;;;;5053555;28;20571;-67
2020/12/27 01:08:50;;;;;;;0.60;0.50;;;20.10;48.90;;;;;;5041615;28;20477;-68
2020/12/27 01:11:17;;;;;;;0.60;0.60;;;20.10;48.90;;;;;;5050211;28;20573;-67
2020/12/27 01:13:43;;;;;;;0.70;0.70;;;20.10;48.80;;;;;;5029274;28;20528;-67
2020/12/27 01:16:10;;;;;;;0.60;0.60;;;20.10;48.70;;;;;;5034056;28;20498;-66
2020/12/27 01:18:36;;;;;;;0.60;0.60;;;20.10;48.70;;;;;;5031839;28;21334;-68
2020/12/27 01:21:03;;;;;;;0.40;0.40;;;20.10;48.80;;;;;;5035049;28;20924;-67
2020/12/27 01:23:29;;;;;;;0.60;0.60;;;20.10;48.70;;;;;;5016341;28;20490;-68
2020/12/27 01:25:55;;;;;;;0.70;0.70;;;20.10;48.60;;;;;;5038133;28;20496;-67
2020/12/27 01:28:21;;;;;;;1.33;0.60;;;20.00;49.50;;;;;;5052001;28;20481;-67
2020/12/27 01:30:48;;;;;;;0.60;0.60;;;20.00;49.00;;;;;;5026291;28;20485;-67
2020/12/27 01:33:14;;;;;;;0.60;0.60;;;20.00;48.60;;;;;;5052047;28;20484;-67
2020/12/27 01:35:43;;;;;;;0.77;0.77;;;20.00;48.80;;;;;;5040918;28;21314;-67
2020/12/27 01:38:10;;;;;;;0.63;0.63;;;19.90;48.80;;;;;;5034140;28;20505;-67
2020/12/27 01:40:37;;;;;;;0.70;0.70;;;19.90;48.70;;;;;;5053766;28;20482;-67
2020/12/27 01:43:03;;;;;;;0.80;0.80;;;20.00;48.70;;;;;;5038166;28;20482;-67
2020/12/27 01:45:29;;;;;;;0.50;0.50;;;19.90;48.80;;;;;;5053251;28;20482;-68
2020/12/27 01:47:55;;;;;;;0.60;0.60;;;20.00;48.70;;;;;;5041759;28;20482;-67
2020/12/27 01:50:21;;;;;;;0.50;0.50;;;20.00;48.90;;;;;;5029174;28;20568;-67
2020/12/27 01:52:48;;;;;;;0.50;0.50;;;20.00;48.90;;;;;;5009162;28;20483;-67
2020/12/27 01:55:15;;;;;;;0.50;0.50;;;20.00;48.90;;;;;;5038850;28;20493;-67
2020/12/27 01:58:01;;;;;;;0.50;0.50;;;20.00;49.00;;;;;;5054082;28;20487;-68
2020/12/27 02:00:27;;;;;;;0.90;0.70;;;20.00;48.80;;;;;;5048592;28;20480;-67
2020/12/27 02:02:53;;;;;;;0.60;0.60;;;20.00;48.80;;;;;;5042635;28;20474;-68
2020/12/27 02:05:19;;;;;;;0.57;0.57;;;19.90;48.70;;;;;;5047014;28;20485;-66
2020/12/27 02:07:45;;;;;;;0.50;0.50;;;19.90;48.70;;;;;;5055384;28;21003;-67
2020/12/27 02:10:11;;;;;;;0.70;0.70;;;19.90;48.70;;;;;;5049694;28;20992;-67
2020/12/27 02:12:39;;;;;;;0.57;0.57;;;19.90;49.00;;;;;;5044314;28;20483;-67
2020/12/27 02:15:05;;;;;;;0.63;0.50;;;19.90;48.80;;;;;;5049263;28;20494;-67
2020/12/27 02:17:31;;;;;;;0.50;0.50;;;19.90;49.00;;;;;;5042263;28;20497;-67
2020/12/27 02:19:57;;;;;;;0.63;0.63;;;19.90;49.10;;;;;;5050636;28;21121;-67
2020/12/27 02:22:24;;;;;;;0.70;0.70;;;19.90;48.90;;;;;;5037107;28;20493;-67
2020/12/27 02:24:51;;;;;;;0.63;0.63;;;19.90;48.90;;;;;;5028346;28;20488;-67
2020/12/27 02:27:17;;;;;;;1.00;0.50;;;19.90;48.80;;;;;;5039744;28;20489;-67
2020/12/27 02:29:43;;;;;;;0.93;0.70;;;19.90;49.00;;;;;;5049090;28;20478;-66
2020/12/27 02:32:09;;;;;;;0.80;0.80;;;19.80;48.90;;;;;;5020869;28;20487;-67
2020/12/27 02:34:35;;;;;;;0.50;0.50;;;19.90;49.10;;;;;;5052339;28;20481;-67
2020/12/27 02:37:01;;;;;;;0.50;0.50;;;19.80;48.90;;;;;;5040881;28;20486;-67
2020/12/27 02:39:27;;;;;;;0.60;0.60;;;19.80;48.70;;;;;;5051686;28;20486;-67
2020/12/27 02:41:54;;;;;;;0.40;0.40;;;19.90;48.70;;;;;;5049831;28;20489;-68
2020/12/27 02:44:21;;;;;;;0.50;0.50;;;19.90;49.50;;;;;;5036576;28;20565;-67
2020/12/27 02:46:47;;;;;;;0.50;0.50;;;19.90;48.70;;;;;;5052041;28;20543;-67
2020/12/27 02:49:13;;;;;;;0.60;0.60;;;19.90;48.80;;;;;;5052332;28;20535;-67
2020/12/27 02:51:39;;;;;;;1.27;0.60;;;19.90;49.60;;;;;;5041052;28;20478;-67
2020/12/27 02:54:05;;;;;;;0.60;0.60;;;19.90;48.90;;;;;;5034007;28;20497;-67
2020/12/27 02:56:31;;;;;;;0.50;0.50;;;19.90;48.80;;;;;;5022185;28;20497;-67
2020/12/27 02:58:59;;;;;;;0.60;0.60;;;19.90;48.70;;;;;;5050637;28;20481;-67
2020/12/27 03:01:25;;;;;;;0.50;0.40;;;19.90;48.80;;;;;;5032283;28;20520;-67
2020/12/27 03:03:51;;;;;;;0.60;0.60;;;19.80;48.80;;;;;;5074425;28;21043;-67
2020/12/27 03:06:18;;;;;;;0.60;0.60;;;19.90;49.00;;;;;;5046371;28;20486;-67
2020/12/27 03:08:45;;;;;;;0.60;0.60;;;19.80;49.00;;;;;;5050678;28;20864;-68
2020/12/27 03:11:11;;;;;;;0.67;0.67;;;19.80;48.60;;;;;;5053583;28;20486;-67
2020/12/27 03:13:37;;;;;;;0.90;0.60;;;19.90;48.80;;;;;;5042170;28;20480;-67
2020/12/27 03:16:05;;;;;;;0.73;0.73;;;19.90;49.00;;;;;;5062393;28;21606;-66
2020/12/27 03:18:31;;;;;;;0.50;0.50;;;19.90;48.90;;;;;;5084229;28;21501;-66
2020/12/27 03:20:57;;;;;;;0.60;0.60;;;19.90;48.90;;;;;;5072547;28;20492;-67
2020/12/27 03:23:24;;;;;;;0.50;0.50;;;20.00;48.90;;;;;;5070180;28;20491;-67
2020/12/27 03:25:50;;;;;;;1.07;0.73;;;19.90;48.90;;;;;;5068645;28;20484;-68
2020/12/27 03:28:16;;;;;;;0.50;0.50;;;19.90;48.50;;;;;;5070627;28;20475;-67
2020/12/27 03:30:42;;;;;;;0.60;0.60;;;19.90;48.60;;;;;;5074758;28;20539;-67
2020/12/27 03:33:09;;;;;;;0.90;0.90;;;19.90;48.50;;;;;;5051926;28;20496;-68
2020/12/27 03:35:35;;;;;;;0.60;0.60;;;19.90;48.60;;;;;;5043102;28;20493;-67
2020/12/27 03:38:01;;;;;;;1.13;0.60;;;20.00;48.90;;;;;;5057675;28;20486;-68
2020/12/27 03:40:28;;;;;;;0.70;0.70;;;20.00;49.00;;;;;;5060024;28;20480;-67
2020/12/27 03:42:54;;;;;;;0.50;0.50;;;20.00;49.00;;;;;;5040813;28;21116;-67
2020/12/27 03:45:20;;;;;;;0.50;0.50;;;20.00;48.90;;;;;;5070824;28;21126;-67
2020/12/27 03:47:46;;;;;;;0.60;0.50;;;20.00;48.70;;;;;;5054078;28;20891;-67
2020/12/27 03:50:13;;;;;;;0.53;0.53;;;20.00;48.70;;;;;;5079166;28;20980;-67
2020/12/27 03:52:39;;;;;;;0.60;0.60;;;20.00;48.50;;;;;;5067859;28;20489;-67
2020/12/27 03:55:05;;;;;;;0.60;0.60;;;19.90;48.60;;;;;;5068449;28;20477;-67
2020/12/27 03:57:31;;;;;;;0.70;0.70;;;19.90;48.70;;;;;;5040219;28;20478;-67
2020/12/27 03:59:58;;;;;;;1.10;0.53;;;19.90;48.80;;;;;;5045419;28;20484;-66
2020/12/27 04:02:24;;;;;;;0.67;0.50;;;19.90;48.70;;;;;;5040517;28;20478;-66
2020/12/27 04:04:50;;;;;;;0.60;0.60;;;19.90;48.80;;;;;;5049085;28;20531;-67
2020/12/27 04:07:17;;;;;;;0.60;0.60;;;19.90;48.90;;;;;;5050146;28;20494;-68
2020/12/27 04:09:43;;;;;;;0.50;0.50;;;19.80;48.90;;;;;;5051881;28;20851;-67
2020/12/27 04:12:13;;;;;;;0.53;0.53;;;19.90;48.70;;;;;;5036518;28;21118;-67
2020/12/27 04:14:39;;;;;;;0.47;0.47;;;19.80;48.60;;;;;;5030735;28;21252;-67
2020/12/27 04:17:05;;;;;;;0.67;0.67;;;19.90;48.60;;;;;;5050382;28;20478;-67
2020/12/27 04:19:31;;;;;;;0.53;0.53;;;19.90;48.60;;;;;;5052718;28;20491;-67
2020/12/27 04:21:58;;;;;;;0.70;0.70;;;19.90;48.60;;;;;;5047920;28;20501;-67
2020/12/27 04:24:25;;;;;;;0.67;0.67;;;19.90;48.60;;;;;;5046281;28;20489;-68
2020/12/27 04:26:51;;;;;;;0.60;0.60;;;19.90;48.70;;;;;;5026231;28;21041;-67
2020/12/27 04:29:17;;;;;;;0.60;0.60;;;19.90;48.50;;;;;;5048668;28;21005;-67
2020/12/27 04:31:43;;;;;;;0.50;0.50;;;19.90;49.20;;;;;;5048409;28;20919;-67
2020/12/27 04:34:09;;;;;;;0.80;0.80;;;19.90;48.50;;;;;;5052086;28;20520;-68
2020/12/27 04:36:35;;;;;;;0.60;0.60;;;19.90;48.60;;;;;;5052024;28;20474;-67
2020/12/27 04:39:01;;;;;;;0.50;0.50;;;19.90;48.80;;;;;;5051006;28;20494;-67
2020/12/27 04:41:28;;;;;;;0.60;0.60;;;19.90;48.70;;;;;;5031354;28;20513;-68
2020/12/27 04:43:55;;;;;;;0.60;0.60;;;19.90;48.60;;;;;;5046162;28;20488;-67
2020/12/27 04:46:21;;;;;;;0.70;0.70;;;19.90;48.90;;;;;;5048623;28;20483;-67
2020/12/27 04:48:47;;;;;;;0.53;0.50;;;19.90;48.80;;;;;;5036711;28;20554;-67
2020/12/27 04:51:13;;;;;;;0.60;0.60;;;19.80;48.50;;;;;;5017956;28;20496;-66
2020/12/27 04:53:40;;;;;;;0.60;0.60;;;19.80;48.60;;;;;;5026639;28;20502;-67
2020/12/27 04:56:06;;;;;;;0.60;0.60;;;19.80;48.90;;;;;;5024839;28;20999;-67
2020/12/27 04:58:33;;;;;;;0.60;0.60;;;19.80;48.60;;;;;;5048453;28;20838;-68
2020/12/27 05:01:00;;;;;;;0.63;0.63;;;19.80;48.70;;;;;;5045477;28;20978;-68
2020/12/27 05:03:27;;;;;;;0.60;0.60;;;19.80;48.30;;;;;;5043281;28;20552;-66
2020/12/27 05:05:54;;;;;;;0.70;0.70;;;19.80;48.60;;;;;;5048809;28;20470;-66
2020/12/27 05:08:21;;;;;;;0.70;0.70;;;19.80;48.70;;;;;;5041582;28;20486;-67
2020/12/27 05:10:47;;;;;;;0.70;0.70;;;19.80;48.50;;;;;;5055326;28;20474;-67
2020/12/27 05:13:14;;;;;;;0.60;0.60;;;19.80;48.60;;;;;;5038312;28;20486;-67
2020/12/27 05:15:41;;;;;;;0.60;0.60;;;19.80;48.30;;;;;;5055548;28;20465;-67
2020/12/27 05:18:08;;;;;;;0.60;0.60;;;19.80;48.40;;;;;;5044669;28;20520;-66
2020/12/27 05:20:34;;;;;;;0.83;0.60;;;19.90;48.40;;;;;;5058275;28;20539;-67
2020/12/27 05:23:02;;;;;;;0.83;0.70;;;19.90;48.80;;;;;;5050470;28;21510;-67
2020/12/27 05:25:29;;;;;;;2.03;0.97;;;19.90;48.50;;;;;;5039654;28;20492;-67
2020/12/27 05:27:55;;;;;;;0.60;0.60;;;19.90;48.40;;;;;;5039839;28;20482;-68
2020/12/27 05:30:25;;;;;;;0.67;0.67;;;19.90;48.80;;;;;;5049909;28;20539;-67
2020/12/27 05:32:52;;;;;;;0.90;0.90;;;20.00;48.50;;;;;;5051460;28;20504;-67
2020/12/27 05:35:18;;;;;;;1.13;0.60;;;20.00;48.80;;;;;;5053816;28;20505;-67
2020/12/27 05:37:44;;;;;;;0.63;0.63;;;20.00;48.50;;;;;;5056584;28;20470;-68
2020/12/27 05:40:11;;;;;;;0.50;0.50;;;20.00;48.20;;;;;;5057699;28;20470;-68
2020/12/27 05:42:37;;;;;;;0.60;0.60;;;20.00;48.30;;;;;;5040492;28;20993;-68
2020/12/27 05:45:12;;;;;;;0.70;0.70;;;19.90;48.20;;;;;;5051591;28;20911;-67
2020/12/27 05:47:39;;;;;;;0.50;0.50;;;19.90;48.30;;;;;;5040479;28;20496;-67
2020/12/27 05:50:07;;;;;;;0.70;0.70;;;19.90;48.40;;;;;;5051957;28;20548;-67
2020/12/27 05:52:34;;;;;;;0.60;0.60;;;19.80;48.50;;;;;;5049465;28;21009;-67
2020/12/27 05:55:00;;;;;;;0.80;0.80;;;19.80;48.30;;;;;;5047299;28;20911;-67
2020/12/27 05:57:26;;;;;;;0.67;0.57;;;19.80;48.40;;;;;;5047257;28;20495;-68
2020/12/27 05:59:52;;;;;;;0.70;0.70;;;19.80;48.60;;;;;;5040403;28;20507;-67
2020/12/27 06:02:39;;;;;;;0.70;0.70;;;19.70;48.70;;;;;;5051590;28;20524;-66
2020/12/27 06:05:13;;;;;;;0.60;0.60;;;19.70;48.60;;;;;;5047099;28;20535;-66
2020/12/27 06:07:41;;;;;;;0.50;0.50;;;19.70;48.40;;;;;;5068957;28;20483;-66
2020/12/27 06:10:08;;;;;;;0.73;0.73;;;19.70;48.30;;;;;;5080518;28;20542;-65
2020/12/27 06:13:11;;;;;;;0.90;0.90;;;19.70;48.00;;;;;;5063793;28;20484;-66
2020/12/27 06:15:41;;;;;;;0.53;0.53;;;19.80;48.00;;;;;;5022579;28;20575;-67
2020/12/27 06:18:08;;;;;;;0.80;0.80;;;19.80;47.70;;;;;;5058735;28;21146;-66
2020/12/27 06:20:35;;;;;;;0.90;0.90;;;19.90;47.60;;;;;;5038423;28;20489;-67
2020/12/27 06:23:02;;;;;;;0.60;0.60;;;20.00;47.60;;;;;;5065070;28;20494;-67
2020/12/27 06:25:29;;;;;;;0.70;0.70;;;20.00;47.50;;;;;;5064793;28;21031;-67
2020/12/27 06:27:55;;;;;;;0.70;0.70;;;20.10;47.20;;;;;;5066610;28;21173;-67
2020/12/27 06:30:22;;;;;;;0.70;0.70;;;20.10;47.00;;;;;;5063573;28;20536;-66
2020/12/27 06:32:53;;;;;;;0.50;0.50;;;20.10;46.70;;;;;;5036997;28;20481;-66
2020/12/27 06:35:27;;;;;;;1.17;0.70;;;20.20;46.90;;;;;;5063724;28;20469;-67
2020/12/27 06:37:54;;;;;;;0.60;0.60;;;20.20;46.80;;;;;;5057072;28;20899;-67
2020/12/27 06:40:20;;;;;;;0.63;0.63;;;20.20;46.70;;;;;;5054055;28;20543;-67
2020/12/27 06:42:46;;;;;;;0.50;0.50;;;20.20;46.80;;;;;;5038950;28;20479;-67
2020/12/27 06:45:29;;;;;;;0.50;0.50;;;20.20;46.80;;;;;;5058390;28;20480;-68
2020/12/27 06:47:55;;;;;;;0.60;0.60;;;20.30;46.90;;;;;;5050281;28;20980;-67
2020/12/27 06:50:22;;;;;;;0.60;0.60;;;20.30;46.90;;;;;;5073858;28;20473;-67
2020/12/27 06:52:49;;;;;;;0.50;0.50;;;20.30;46.90;;;;;;5049895;28;20547;-67
2020/12/27 06:55:37;;;;;;;0.60;0.60;;;20.20;46.90;;;;;;5070620;28;21704;-66
2020/12/27 06:58:30;;;;;;;0.73;0.73;;;20.20;47.00;;;;;;5047589;28;20496;-67
2020/12/27 07:01:10;;;;;;;0.60;0.60;;;20.10;46.80;;;;;;5009657;28;20995;-67
2020/12/27 07:03:36;;;;;;;0.50;0.50;;;20.10;47.10;;;;;;5084051;28;20473;-68
2020/12/27 07:06:19;;;;;;;0.70;0.70;;;20.10;46.90;;;;;;5071222;28;20481;-67
2020/12/27 07:08:45;;;;;;;0.70;0.70;;;20.10;46.80;;;;;;5055908;28;20560;-68
2020/12/27 07:11:16;;;;;;;0.60;0.60;;;20.10;46.70;;;;;;5046117;28;20865;-67
2020/12/27 07:13:44;;;;;;;0.60;0.50;;;20.10;46.70;;;;;;5051776;28;20481;-67
2020/12/27 07:16:10;;;;;;;0.70;0.70;;;20.10;46.70;;;;;;5050253;28;20481;-67
2020/12/27 07:18:37;;;;;;;0.70;0.70;;;20.10;46.70;;;;;;5072623;28;20480;-67
2020/12/27 07:21:03;;;;;;;0.60;0.60;;;20.10;46.70;;;;;;5056608;28;20481;-67
2020/12/27 07:23:30;;;;;;;0.60;0.60;;;20.10;46.70;;;;;;5066098;28;20488;-67
2020/12/27 07:25:57;;;;;;;0.63;0.63;;;20.10;46.60;;;;;;5071362;28;20473;-67
2020/12/27 07:28:24;;;;;;;0.60;0.60;;;20.20;46.70;;;;;;5055589;28;20496;-67
2020/12/27 07:30:56;;;;;;;0.57;0.57;;;20.20;46.60;;;;;;5045073;28;20487;-67
2020/12/27 07:33:26;;;;;;;0.70;0.70;;;20.30;46.90;;;;;;5058253;28;20491;-67
2020/12/27 07:35:58;;;;;;;0.57;0.57;;;20.30;46.90;;;;;;5069271;28;20477;-67
2020/12/27 07:38:25;;;;;;;0.50;0.50;;;20.30;46.80;;;;;;5059811;28;20534;-68
2020/12/27 07:40:51;;;;;;;0.83;0.83;;;20.30;46.60;;;;;;5055255;28;22256;-67
2020/12/27 07:43:17;;;;;;;1.13;0.60;;;20.30;46.60;;;;;;5063554;28;20493;-67
2020/12/27 07:45:44;;;;;;;0.50;0.50;;;20.30;46.40;;;;;;5085642;28;20928;-67
2020/12/27 07:48:11;;;;;;;0.60;0.60;;;20.30;46.20;;;;;;5066908;28;20497;-67
2020/12/27 07:50:37;;;;;;;0.50;0.50;;;20.30;46.40;;;;;;5059624;28;21014;-67
2020/12/27 07:53:03;;;;;;;0.60;0.60;;;20.30;46.70;;;;;;5063832;28;20480;-67
2020/12/27 07:55:31;;;;;;;0.70;0.67;;;20.30;46.50;;;;;;5084887;28;20644;-67
2020/12/27 07:57:59;;;;;;;0.63;0.50;;;20.30;46.70;;;;;;5061446;28;20481;-68
2020/12/27 08:00:26;;;;;;;0.50;0.50;;;20.30;46.60;;;;;;5081216;28;20485;-68
2020/12/27 08:02:53;;;;;;;0.60;0.60;;;20.30;46.60;;;;;;5065669;28;20488;-67
2020/12/27 08:05:19;;;;;;;0.73;0.73;;;20.30;46.70;;;;;;5045649;28;20561;-67
2020/12/27 08:07:45;;;;;;;1.00;0.63;;;20.30;46.60;;;;;;5051603;28;20477;-69
2020/12/27 08:10:19;;;;;;;1.07;0.57;;;20.30;46.60;;;;;;5052524;28;20493;-67
2020/12/27 08:12:53;;;;;;;0.50;0.50;;;20.30;46.40;;;;;;5038449;28;20567;-67
2020/12/27 08:15:19;;;;;;;0.90;0.90;;;20.30;46.60;;;;;;5055621;28;20493;-67
2020/12/27 08:17:59;;;;;;;0.60;0.60;;;20.30;46.40;;;;;;5043952;28;20484;-67
2020/12/27 08:20:26;;;;;;;0.90;0.57;;;20.30;46.40;;;;;;5051547;28;20489;-67
2020/12/27 08:23:06;;;;;;;0.50;0.50;;;20.30;46.30;;;;;;5046263;28;20871;-68
2020/12/27 08:25:33;;;;;;;0.47;0.47;;;20.30;46.40;;;;;;5050554;28;20547;-67
2020/12/27 08:27:59;;;;;;;0.60;0.60;;;20.30;46.40;;;;;;5047257;28;20550;-67
2020/12/27 08:30:26;;;;;;;0.50;0.50;;;20.20;46.30;;;;;;5038355;28;20615;-67
2020/12/27 08:33:10;;;;;;;0.70;0.50;;;20.20;46.20;;;;;;5026823;28;20510;-67
2020/12/27 08:35:38;;;;;;;0.60;0.60;;;20.20;46.20;;;;;;5029412;28;20484;-66
2020/12/27 08:38:13;;;;;;;0.50;0.50;;;20.20;46.20;;;;;;5031071;28;20491;-67
2020/12/27 08:40:40;;;;;;;0.77;0.77;;;20.20;46.20;;;;;;5021670;28;21113;-67
2020/12/27 08:43:09;;;;;;;0.50;0.50;;;20.20;46.20;;;;;;5039783;28;20478;-68
2020/12/27 08:45:35;;;;;;;0.60;0.60;;;20.30;46.40;;;;;;5043212;28;21111;-67
2020/12/27 08:48:06;;;;;;;0.50;0.50;;;20.30;46.50;;;;;;5052481;28;20922;-67
2020/12/27 08:50:35;;;;;;;0.50;0.50;;;20.30;46.40;;;;;;5025795;28;20516;-68
2020/12/27 08:53:02;;;;;;;0.60;0.60;;;20.30;46.40;;;;;;5047790;28;20490;-67
2020/12/27 08:55:29;;;;;;;0.67;0.67;;;20.30;46.50;;;;;;5054391;28;20497;-67
2020/12/27 08:57:56;;;;;;;0.80;0.80;;;20.30;46.40;;;;;;5054195;28;20500;-68
2020/12/27 09:00:22;;;;;;;0.43;0.43;;;20.30;46.70;;;;;;5040790;28;20481;-67
2020/12/27 09:02:55;;;;;;;0.63;0.63;;;20.30;46.60;;;;;;5053969;28;20850;-67
2020/12/27 09:05:24;;;;;;;0.60;0.60;;;20.30;46.60;;;;;;5039926;28;21079;-67
2020/12/27 09:07:51;;;;;;;1.00;0.60;;;20.20;46.60;;;;;;5049275;28;20474;-67
2020/12/27 09:10:20;;;;;;;0.60;0.60;;;20.20;46.50;;;;;;5039950;28;20478;-67
2020/12/27 09:12:56;;;;;;;0.50;0.50;;;20.20;46.70;;;;;;5020685;28;20493;-67
2020/12/27 09:15:24;;;;;;;0.57;0.57;;;20.20;46.50;;;;;;5014771;28;21000;-67
2020/12/27 09:17:57;;;;;;;0.80;0.80;;;20.20;46.50;;;;;;5037975;28;20513;-67
2020/12/27 09:20:23;;;;;;;0.43;0.40;;;20.20;46.60;;;;;;5045585;28;21864;-67
2020/12/27 09:22:50;;;;;;;0.50;0.50;;;20.20;46.50;;;;;;5034463;28;20488;-67
2020/12/27 09:25:18;;;;;;;0.67;0.67;;;20.20;46.50;;;;;;5040378;28;20502;-68
2020/12/27 09:27:44;;;;;;;0.50;0.50;;;20.20;46.60;;;;;;5041423;28;20918;-66
2020/12/27 09:30:11;;;;;;;0.60;0.60;;;20.20;46.60;;;;;;5049717;28;20540;-66
2020/12/27 09:32:37;;;;;;;0.70;0.70;;;20.20;46.60;;;;;;5035213;28;20482;-67
2020/12/27 09:35:04;;;;;;;0.60;0.60;;;20.20;46.80;;;;;;5042402;28;20484;-66
2020/12/27 09:37:33;;;;;;;0.70;0.60;;;20.20;46.80;;;;;;5030374;28;20520;-66
2020/12/27 09:40:00;;;;;;;1.07;0.70;;;20.30;46.90;;;;;;5048810;28;20500;-66
2020/12/27 09:42:27;;;;;;;0.70;0.60;;;20.30;46.90;;;;;;5032695;28;20492;-67
2020/12/27 09:44:54;;;;;;;0.70;0.60;;;20.30;46.70;;;;;;5030592;28;20482;-67
2020/12/27 09:47:22;;;;;;;0.60;0.60;;;20.30;46.90;;;;;;5044230;28;20547;-66
2020/12/27 09:50:02;;;;;;;0.60;0.60;;;20.40;46.60;;;;;;5033599;28;21311;-66
2020/12/27 09:52:28;;;;;;;0.50;0.50;;;20.30;46.90;;;;;;5058360;28;20486;-66
2020/12/27 09:54:54;;;;;;;0.70;0.70;;;20.30;46.90;;;;;;5048066;28;21012;-66
2020/12/27 09:57:22;;;;;;;0.67;0.67;;;20.30;46.60;;;;;;5034555;28;21004;-66
2020/12/27 09:59:48;;;;;;;0.60;0.50;;;20.30;46.70;;;;;;5040966;28;20844;-67
2020/12/27 10:02:15;;;;;;;0.70;0.70;;;20.30;46.60;;;;;;5044525;28;20487;-66
2020/12/27 10:04:41;;;;;;;0.50;0.50;;;20.20;46.80;;;;;;5044075;28;20476;-66
2020/12/27 10:07:07;;;;;;;4.73;1.53;;;20.20;46.80;;;;;;5042381;28;20494;-66
2020/12/27 10:09:33;;;;;;;0.50;0.50;;;20.20;46.70;;;;;;5046722;28;20473;-66
2020/12/27 10:11:59;;;;;;;1.43;0.60;;;20.20;46.80;;;;;;5015615;28;20494;-67
2020/12/27 10:14:26;;;;;;;0.50;0.50;;;20.20;46.70;;;;;;5047907;28;21004;-67
2020/12/27 10:16:53;;;;;;;0.50;0.50;;;20.20;46.80;;;;;;5049278;28;20511;-67
2020/12/27 10:19:19;;;;;;;0.60;0.60;;;20.20;46.60;;;;;;5043523;28;20466;-67
2020/12/27 10:21:46;;;;;;;0.40;0.40;;;20.20;46.60;;;;;;5021773;28;20535;-68
2020/12/27 10:24:12;;;;;;;0.50;0.50;;;20.20;46.80;;;;;;5035894;28;20497;-67
2020/12/27 10:26:39;;;;;;;0.50;0.50;;;20.20;46.80;;;;;;5038732;28;20579;-67
2020/12/27 10:29:05;;;;;;;0.50;0.50;;;20.20;46.80;;;;;;5050740;28;20522;-67
2020/12/27 10:31:32;;;;;;;0.60;0.57;;;20.20;46.80;;;;;;5039366;28;20482;-67
2020/12/27 10:33:59;;;;;;;0.60;0.60;;;20.20;46.80;;;;;;5054773;28;20477;-66
2020/12/27 10:36:25;;;;;;;0.60;0.60;;;20.20;46.80;;;;;;5052771;28;20480;-67
2020/12/27 10:38:51;;;;;;;0.70;0.70;;;20.20;46.80;;;;;;5051267;28;20477;-67
2020/12/27 10:41:17;;;;;;;0.70;0.70;;;20.20;46.60;;;;;;5034176;28;20477;-66
2020/12/27 10:43:49;;;;;;;0.50;0.50;;;20.20;46.70;;;;;;5043314;28;20502;-66
2020/12/27 10:46:15;;;;;;;0.83;0.60;;;20.20;46.60;;;;;;5015984;28;20877;-67
2020/12/27 10:48:42;;;;;;;0.50;0.50;;;20.30;46.80;;;;;;5053547;28;20489;-68
2020/12/27 10:51:08;;;;;;;0.70;0.70;;;20.20;46.80;;;;;;5032123;28;20534;-66
2020/12/27 10:53:36;;;;;;;0.50;0.50;;;20.20;46.80;;;;;;5039533;28;20493;-66
2020/12/27 10:56:02;;;;;;;0.90;0.60;;;20.10;46.70;;;;;;5005164;28;20479;-67
2020/12/27 10:58:28;;;;;;;1.30;0.70;;;20.10;46.70;;;;;;5053090;28;20474;-67
2020/12/27 11:00:54;;;;;;;0.50;0.50;;;20.10;46.70;;;;;;5040365;28;20521;-67
2020/12/27 11:03:21;;;;;;;0.40;0.40;;;20.10;46.60;;;;;;5029167;28;21011;-66
2020/12/27 11:05:48;;;;;;;1.47;0.60;;;20.10;46.80;;;;;;5028136;28;20490;-67
2020/12/27 11:08:14;;;;;;;0.50;0.50;;;20.10;46.50;;;;;;5043398;28;20490;-68
2020/12/27 11:10:43;;;;;;;0.50;0.50;;;20.10;46.60;;;;;;5021988;28;20505;-67
2020/12/27 11:13:09;;;;;;;0.50;0.50;;;20.10;46.60;;;;;;5042016;28;20480;-67
2020/12/27 11:15:35;;;;;;;0.40;0.40;;;20.10;46.40;;;;;;5029646;28;20617;-66
2020/12/27 11:18:01;;;;;;;1.00;0.60;;;20.10;46.50;;;;;;5009141;28;20486;-67
2020/12/27 11:20:27;;;;;;;0.70;0.60;;;20.10;46.60;;;;;;5006481;28;20490;-67
2020/12/27 11:22:56;;;;;;;1.13;0.50;;;20.10;46.50;;;;;;5038778;28;20490;-67
2020/12/27 11:25:22;;;;;;;0.53;0.53;;;20.20;46.60;;;;;;5031224;28;20482;-67
2020/12/27 11:27:48;;;;;;;1.43;0.93;;;20.20;46.60;;;;;;5038485;28;20486;-68
2020/12/27 11:30:14;;;;;;;0.60;0.50;;;20.20;46.70;;;;;;5004463;28;20456;-65
2020/12/27 11:32:40;;;;;;;0.50;0.50;;;20.20;46.70;;;;;;5036461;28;20527;-66
2020/12/27 11:35:06;;;;;;;0.70;0.70;;;20.20;46.70;;;;;;5050976;28;20482;-67
2020/12/27 11:37:32;;;;;;;0.50;0.50;;;20.20;46.60;;;;;;5035226;28;20505;-67
2020/12/27 11:39:59;;;;;;;0.40;0.40;;;20.20;46.70;;;;;;5027557;28;21071;-65
2020/12/27 11:42:26;;;;;;;0.50;0.50;;;20.10;46.50;;;;;;5034490;28;20501;-67
2020/12/27 11:44:52;;;;;;;0.70;0.70;;;20.10;47.40;;;;;;5045924;28;21021;-67
2020/12/27 11:47:18;;;;;;;0.60;0.60;;;20.20;46.70;;;;;;5051744;28;20474;-66
2020/12/27 11:49:44;;;;;;;0.57;0.57;;;20.10;46.40;;;;;;5053359;28;20500;-68
2020/12/27 11:52:10;;;;;;;0.60;0.60;;;20.10;46.40;;;;;;5047679;28;20495;-67
2020/12/27 11:54:36;;;;;;;1.03;0.60;;;20.20;46.40;;;;;;5049144;28;20473;-67
2020/12/27 11:57:03;;;;;;;0.60;0.60;;;20.20;46.40;;;;;;5033064;28;20503;-67
2020/12/27 11:59:29;;;;;;;0.70;0.60;;;20.20;46.60;;;;;;5035301;28;21076;-66
2020/12/27 12:01:56;;;;;;;0.50;0.50;;;20.20;46.70;;;;;;5048802;28;20482;-67
2020/12/27 12:04:22;;;;;;;0.50;0.50;;;20.20;46.80;;;;;;5047276;28;20481;-67
2020/12/27 12:06:48;;;;;;;0.70;0.60;;;20.20;46.80;;;;;;5024113;28;20485;-67
2020/12/27 12:09:14;;;;;;;0.50;0.50;;;20.30;46.70;;;;;;5032081;28;20507;-67
2020/12/27 12:11:41;;;;;;;0.63;0.63;;;20.20;46.50;;;;;;5051724;28;20479;-67
2020/12/27 12:14:08;;;;;;;0.50;0.50;;;20.30;46.60;;;;;;5034002;28;20504;-67
2020/12/27 12:16:35;;;;;;;0.60;0.60;;;20.20;46.50;;;;;;5042266;28;21035;-67
2020/12/27 12:19:01;;;;;;;2.10;0.67;;;20.30;46.60;;;;;;5033833;28;20489;-67
2020/12/27 12:21:28;;;;;;;0.50;0.50;;;20.30;46.50;;;;;;5051468;28;20857;-67
2020/12/27 12:23:54;;;;;;;0.70;0.70;;;20.20;46.50;;;;;;5045594;28;20485;-67
2020/12/27 12:26:21;;;;;;;0.70;0.70;;;20.20;46.50;;;;;;5032956;28;20489;-68
2020/12/27 12:28:47;;;;;;;0.50;0.50;;;20.20;46.40;;;;;;5038751;28;20486;-67
2020/12/27 12:31:14;;;;;;;0.60;0.60;;;20.20;46.60;;;;;;5047157;28;20488;-67
2020/12/27 12:33:40;;;;;;;1.03;0.97;;;20.20;46.50;;;;;;5033797;28;20515;-67
2020/12/27 12:36:06;;;;;;;0.60;0.60;;;20.20;46.50;;;;;;5029137;28;20494;-68
2020/12/27 12:38:33;;;;;;;0.70;0.70;;;20.20;46.80;;;;;;5047848;28;20496;-68
2020/12/27 12:40:59;;;;;;;0.40;0.40;;;20.20;46.80;;;;;;5030622;28;20486;-67
2020/12/27 12:43:30;;;;;;;0.50;0.50;;;20.30;46.70;;;;;;5028628;28;20569;-67
2020/12/27 12:45:57;;;;;;;0.60;0.60;;;20.20;46.80;;;;;;5039077;28;20856;-66
2020/12/27 12:48:24;;;;;;;0.50;0.50;;;20.20;46.60;;;;;;5031321;28;20492;-67